createdAt,value
2018-07-25T00:02:00.986Z,99.90
2018-07-25T00:07:06.091Z,99.90
2018-07-25T00:12:09.180Z,99.90
2018-07-25T00:17:12.325Z,99.90
2018-07-25T00:22:16.514Z,99.90
2018-07-25T00:27:19.635Z,99.90
2018-07-25T00:32:23.271Z,99.90
2018-07-25T00:42:29.375Z,99.90
2018-07-25T00:47:33.962Z,99.90
2018-07-25T00:52:37.039Z,99.90
2018-07-25T00:57:40.355Z,99.90
2018-07-25T01:02:43.425Z,99.90
2018-07-25T01:07:46.741Z,99.90
2018-07-25T01:12:49.820Z,99.90
2018-07-25T01:17:52.897Z,99.90
2018-07-25T01:22:56.069Z,99.90
2018-07-25T01:27:59.239Z,99.90
2018-07-25T01:33:02.426Z,99.90
2018-07-25T01:38:05.566Z,99.90
2018-07-25T01:43:09.553Z,99.90
2018-07-25T01:48:12.588Z,99.90
2018-07-25T01:53:15.678Z,99.90
2018-07-25T01:58:18.768Z,99.90
2018-07-25T02:03:21.818Z,99.90
2018-07-25T02:08:24.883Z,99.90
2018-07-25T02:13:27.950Z,99.90
2018-07-25T02:18:31.123Z,99.90
2018-07-25T02:23:34.182Z,99.90
2018-07-25T02:28:37.236Z,99.90
2018-07-25T02:33:45.741Z,99.90
2018-07-25T02:38:49.878Z,99.90
2018-07-25T02:43:53.026Z,99.90
2018-07-25T02:48:56.089Z,99.90
2018-07-25T02:53:59.208Z,99.90
2018-07-25T02:59:03.177Z,99.90
2018-07-25T03:04:06.285Z,99.90
2018-07-25T03:09:10.145Z,99.90
2018-07-25T03:14:13.245Z,99.90
2018-07-25T03:19:16.580Z,99.90
2018-07-25T03:24:19.732Z,99.90
2018-07-25T03:29:22.864Z,99.90
2018-07-25T03:34:25.924Z,99.90
2018-07-25T03:39:28.990Z,99.90
2018-07-25T03:44:32.052Z,99.90
2018-07-25T03:49:35.121Z,99.90
2018-07-25T03:54:39.222Z,99.90
2018-07-25T03:59:42.610Z,99.90
2018-07-25T04:04:48.151Z,99.90
2018-07-25T04:09:51.294Z,99.90
2018-07-25T04:14:54.709Z,99.90
2018-07-25T04:19:57.831Z,99.90
2018-07-25T04:25:01.019Z,99.90
2018-07-25T04:30:05.274Z,99.90
2018-07-25T04:35:09.374Z,99.90
2018-07-25T04:40:12.516Z,99.90
2018-07-25T04:45:15.609Z,99.90
2018-07-25T04:50:18.823Z,99.90
2018-07-25T04:55:21.856Z,99.90
2018-07-25T05:05:27.868Z,99.90
2018-07-25T05:10:30.973Z,99.90
2018-07-25T05:15:34.109Z,99.90
2018-07-25T05:20:37.361Z,99.90
2018-07-25T05:25:40.427Z,99.90
2018-07-25T05:30:43.478Z,99.90
2018-07-25T05:35:46.546Z,99.90
2018-07-25T05:40:49.689Z,99.90
2018-07-25T05:45:52.766Z,99.90
2018-07-25T05:50:55.831Z,99.90
2018-07-25T05:55:58.906Z,99.90
2018-07-25T06:01:02.012Z,99.90
2018-07-25T06:06:05.282Z,99.90
2018-07-25T06:11:08.372Z,99.90
2018-07-25T06:16:11.564Z,99.90
2018-07-25T06:21:15.662Z,99.90
2018-07-25T06:26:18.795Z,99.90
2018-07-25T06:31:21.985Z,99.90
2018-07-25T06:36:26.187Z,99.20
2018-07-25T06:41:29.319Z,97.30
2018-07-25T06:46:32.465Z,97.80
2018-07-25T06:51:35.869Z,94.80
2018-07-25T06:56:38.994Z,94.40
2018-07-25T07:01:42.086Z,92.60
2018-07-25T07:06:45.279Z,92.40
2018-07-25T07:11:48.319Z,91.80
2018-07-25T07:16:51.389Z,90.30
2018-07-25T07:21:54.757Z,90.50
2018-07-25T07:37:05.510Z,85.60
2018-07-25T07:42:08.564Z,84.40
2018-07-25T07:47:13.061Z,83.10
2018-07-25T07:52:16.322Z,82.10
2018-07-25T07:57:19.410Z,82.50
2018-07-25T08:02:22.536Z,80.10
2018-07-25T08:07:25.632Z,76.40
2018-07-25T08:12:28.673Z,74.00
2018-07-25T08:17:31.853Z,74.50
2018-07-25T08:22:35.029Z,71.40
2018-07-25T08:27:38.300Z,72.40
2018-07-25T08:32:41.367Z,72.30
2018-07-25T08:37:44.468Z,73.10
2018-07-25T08:42:47.557Z,75.70
2018-07-25T08:47:50.673Z,75.00
2018-07-25T08:52:53.785Z,75.00
2018-07-25T08:57:56.915Z,76.50
2018-07-25T09:03:00.091Z,78.00
2018-07-25T09:08:03.136Z,81.40
2018-07-25T09:13:06.614Z,82.30
2018-07-25T09:18:09.729Z,78.50
2018-07-25T09:23:12.767Z,81.50
2018-07-25T09:28:15.851Z,82.60
2018-07-25T09:33:18.907Z,83.40
2018-07-25T09:38:21.985Z,83.60
2018-07-25T09:43:25.084Z,82.80
2018-07-25T09:53:31.126Z,82.60
2018-07-25T09:58:34.193Z,82.20
2018-07-25T10:03:37.287Z,81.60
2018-07-25T10:08:40.402Z,82.50
2018-07-25T10:13:43.436Z,79.40
2018-07-25T10:18:46.612Z,78.50
2018-07-25T10:23:49.677Z,77.90
2018-07-25T10:28:52.770Z,77.10
2018-07-25T10:33:55.864Z,79.90
2018-07-25T10:38:59.054Z,79.50
2018-07-25T10:44:02.155Z,76.00
2018-07-25T10:49:05.429Z,77.80
2018-07-25T10:54:08.495Z,76.90
2018-07-25T10:59:11.617Z,74.50
2018-07-25T11:04:14.676Z,80.40
2018-07-25T11:09:17.910Z,75.20
2018-07-25T11:14:21.008Z,77.60
2018-07-25T11:19:24.110Z,78.20
2018-07-25T11:24:27.198Z,76.10
2018-07-25T11:29:30.357Z,77.80
2018-07-25T11:34:33.466Z,78.70
2018-07-25T11:39:36.565Z,75.70
2018-07-25T11:44:39.771Z,75.70
2018-07-25T11:49:42.965Z,76.90
2018-07-25T11:54:46.273Z,77.80
2018-07-25T11:59:49.365Z,75.70
2018-07-25T12:04:52.447Z,78.00
2018-07-25T12:09:55.540Z,77.80
2018-07-25T12:14:58.616Z,78.30
2018-07-25T12:20:01.721Z,78.70
2018-07-25T12:25:05.781Z,78.20
2018-07-25T12:30:09.765Z,76.60
2018-07-25T12:35:12.828Z,78.10
2018-07-25T12:40:16.001Z,75.00
2018-07-25T12:45:19.125Z,75.90
2018-07-25T12:50:22.207Z,75.70
2018-07-25T12:55:25.346Z,75.10
2018-07-25T13:00:28.578Z,75.70
2018-07-25T13:05:31.652Z,75.30
2018-07-25T13:10:34.878Z,76.20
2018-07-25T13:15:38.003Z,72.60
2018-07-25T13:20:41.092Z,73.30
2018-07-25T13:25:44.268Z,75.00
2018-07-25T13:30:47.318Z,74.80
2018-07-25T13:35:50.383Z,71.40
2018-07-25T13:40:53.465Z,73.40
2018-07-25T13:45:56.532Z,72.30
2018-07-25T13:50:59.590Z,71.80
2018-07-25T13:56:02.730Z,72.80
2018-07-25T14:01:05.832Z,71.30
2018-07-25T14:06:08.944Z,72.20
2018-07-25T14:11:12.590Z,70.20
2018-07-25T14:16:15.663Z,70.30
2018-07-25T14:21:18.723Z,71.90
2018-07-25T14:26:21.834Z,71.00
2018-07-25T14:36:27.857Z,68.00
2018-07-25T14:41:30.943Z,67.90
2018-07-25T14:46:34.359Z,70.70
2018-07-25T14:51:37.528Z,70.30
2018-07-25T14:56:40.621Z,67.80
2018-07-25T15:01:43.675Z,68.50
2018-07-25T15:06:46.880Z,67.90
2018-07-25T15:11:49.983Z,67.00
2018-07-25T15:16:53.047Z,68.50
2018-07-25T15:21:56.232Z,67.90
2018-07-25T15:26:59.313Z,69.30
2018-07-25T15:32:02.422Z,68.60
2018-07-25T15:37:05.548Z,66.20
2018-07-25T15:42:08.635Z,67.30
2018-07-25T15:47:12.553Z,66.70
2018-07-25T15:52:15.612Z,67.70
2018-07-25T15:57:18.730Z,69.00
2018-07-25T16:02:21.800Z,67.20
2018-07-25T16:07:24.961Z,67.30
2018-07-25T16:12:28.182Z,69.70
2018-07-25T16:17:31.230Z,70.90
2018-07-25T16:22:34.327Z,67.40
2018-07-25T16:27:37.428Z,69.80
2018-07-25T16:32:40.576Z,68.60
2018-07-25T16:37:43.628Z,69.70
2018-07-25T16:42:46.756Z,70.90
2018-07-25T16:47:49.868Z,71.10
2018-07-25T16:52:53.597Z,70.80
2018-07-25T16:57:56.717Z,73.70
2018-07-25T17:09:07.791Z,71.90
2018-07-25T17:14:10.903Z,73.00
2018-07-25T17:19:15.190Z,73.30
2018-07-25T17:24:18.225Z,72.30
2018-07-25T17:34:24.217Z,71.80
2018-07-25T17:39:27.302Z,72.10
2018-07-25T17:44:30.356Z,74.00
2018-07-25T17:49:33.487Z,76.10
2018-07-25T17:54:37.592Z,76.70
2018-07-25T17:59:40.632Z,78.00
2018-07-25T18:04:43.708Z,80.70
2018-07-25T18:09:46.896Z,78.60
2018-07-25T18:14:49.924Z,79.50
2018-07-25T18:19:53.000Z,79.50
2018-07-25T18:24:56.111Z,81.10
2018-07-25T18:29:59.272Z,80.80
2018-07-25T18:35:02.354Z,81.90
2018-07-25T18:40:05.697Z,82.80
2018-07-25T18:45:08.758Z,83.30
2018-07-25T18:50:12.023Z,86.30
2018-07-25T18:55:15.205Z,90.00
2018-07-25T19:00:18.324Z,90.40
2018-07-25T19:05:25.655Z,91.70
2018-07-25T19:10:28.864Z,91.90
2018-07-25T19:15:33.236Z,92.20
2018-07-25T19:25:39.282Z,93.30
2018-07-25T19:30:42.494Z,94.00
2018-07-25T19:35:46.594Z,94.60
2018-07-25T19:40:49.653Z,95.60
2018-07-25T19:45:52.798Z,96.40
2018-07-25T19:50:55.938Z,97.20
2018-07-25T19:55:58.973Z,96.50
2018-07-25T20:01:02.065Z,95.30
2018-07-25T20:11:08.274Z,95.00
2018-07-25T20:16:11.356Z,95.10
2018-07-25T20:21:14.565Z,94.70
2018-07-25T20:26:17.650Z,95.10
2018-07-25T20:31:20.833Z,96.90
2018-07-25T20:36:23.803Z,98.10
2018-07-25T20:41:26.980Z,98.10
2018-07-25T20:46:30.025Z,99.90
2018-07-25T20:51:33.174Z,99.90
2018-07-25T20:56:36.333Z,99.70
2018-07-25T21:01:39.485Z,99.70
2018-07-25T21:06:42.536Z,99.90
2018-07-25T21:11:45.587Z,99.70
2018-07-25T21:16:48.733Z,98.00
2018-07-25T21:21:51.824Z,97.70
2018-07-25T21:26:54.852Z,97.80
2018-07-25T21:31:57.925Z,98.10
2018-07-25T21:37:01.035Z,97.80
2018-07-25T21:42:04.182Z,98.40
2018-07-25T21:47:07.276Z,99.20
2018-07-25T21:52:10.336Z,99.40
2018-07-25T21:57:13.410Z,99.20
2018-07-25T22:02:16.577Z,99.50
2018-07-25T22:07:19.647Z,99.90
2018-07-25T22:12:22.833Z,99.90
2018-07-25T22:17:26.073Z,99.90
2018-07-25T22:22:29.263Z,99.90
2018-07-25T22:27:32.443Z,99.90
2018-07-25T22:32:35.571Z,99.90
2018-07-25T22:37:38.686Z,99.90
2018-07-25T22:42:41.777Z,99.90
2018-07-25T22:47:44.833Z,99.90
2018-07-25T22:52:47.880Z,99.90
2018-07-25T23:02:53.835Z,99.90
2018-07-25T23:07:57.069Z,99.90
2018-07-25T23:13:00.125Z,99.90
2018-07-25T23:23:06.144Z,99.90
2018-07-25T23:28:09.316Z,99.90
2018-07-25T23:33:12.423Z,99.90
2018-07-25T23:38:15.501Z,99.90
2018-07-25T23:43:18.557Z,99.90
2018-07-25T23:48:22.717Z,99.90
2018-07-25T23:53:25.792Z,99.90
2018-07-25T23:58:28.842Z,99.90
